Terminal Aerodrome Forecast
Issued by NWS

Home | Current Version | Previous Version | Text Only | Print | Product List | Glossary On
Versions: 1 2 3 4 5 6 7 8 9 10 11 12 13 14 15 16 17
000
FTUS46 KMTR 301120
TAFOAK
TAF
KOAK 301120Z 3012/0118 30005KT P6SM FEW010 SCT250
      TEMPO 3012/3014 BKN008
     FM301700 29005KT P6SM FEW010 SCT200
     FM301900 30012KT P6SM SKC
     FM010400 30005KT P6SM FEW010=

USA.gov is the U.S. government's official web portal to all federal, state and local government web resources and services.